createdAt,value
2018-10-21T00:01:25.031Z,76.90
2018-10-21T00:03:56.826Z,76.00
2018-10-21T00:06:28.568Z,75.70
2018-10-21T00:09:00.564Z,76.00
2018-10-21T00:11:32.381Z,76.20
2018-10-21T00:14:04.177Z,76.50
2018-10-21T00:16:35.935Z,76.80
2018-10-21T00:19:08.281Z,76.10
2018-10-21T00:21:40.049Z,76.30
2018-10-21T00:24:11.824Z,76.70
2018-10-21T00:26:43.474Z,77.30
2018-10-21T00:29:15.306Z,76.70
2018-10-21T00:31:47.203Z,76.40
2018-10-21T00:34:18.831Z,76.80
2018-10-21T00:36:50.571Z,75.30
2018-10-21T00:39:22.364Z,75.00
2018-10-21T00:41:53.997Z,76.10
2018-10-21T00:44:25.982Z,77.00
2018-10-21T00:46:57.757Z,78.10
2018-10-21T00:49:29.397Z,77.10
2018-10-21T00:52:01.138Z,76.40
2018-10-21T00:54:32.790Z,77.30
2018-10-21T00:57:04.632Z,77.80
2018-10-21T00:59:36.448Z,78.30
2018-10-21T01:02:08.785Z,78.30
2018-10-21T01:04:40.683Z,79.30
2018-10-21T01:07:12.328Z,77.90
2018-10-21T01:09:44.089Z,78.00
2018-10-21T01:12:15.928Z,78.10
2018-10-21T01:14:47.911Z,78.50
2018-10-21T01:17:19.684Z,79.30
2018-10-21T01:19:51.325Z,79.00
2018-10-21T01:22:23.073Z,78.60
2018-10-21T01:24:54.833Z,79.00
2018-10-21T01:27:26.606Z,79.30
2018-10-21T01:29:58.342Z,79.80
2018-10-21T01:32:30.003Z,80.30
2018-10-21T01:35:01.663Z,80.60
2018-10-21T01:37:33.623Z,80.10
2018-10-21T01:43:14.002Z,77.70
2018-10-21T01:45:45.966Z,76.90
2018-10-21T01:48:18.647Z,76.40
2018-10-21T01:50:50.263Z,76.50
2018-10-21T01:53:22.482Z,76.70
2018-10-21T01:55:54.551Z,76.70
2018-10-21T01:58:26.432Z,76.60
2018-10-21T02:00:58.058Z,76.60
2018-10-21T02:03:29.825Z,76.60
2018-10-21T02:06:01.606Z,76.30
2018-10-21T02:08:33.220Z,76.40
2018-10-21T02:11:04.925Z,75.90
2018-10-21T02:13:36.661Z,76.30
2018-10-21T02:16:08.322Z,77.00
2018-10-21T02:18:40.170Z,76.60
2018-10-21T02:21:11.979Z,77.20
2018-10-21T02:23:43.702Z,77.70
2018-10-21T02:26:15.514Z,78.30
2018-10-21T02:28:47.205Z,78.70
2018-10-21T02:31:18.970Z,79.20
2018-10-21T02:33:50.852Z,79.70
2018-10-21T02:36:22.484Z,80.10
2018-10-21T02:38:54.283Z,80.80
2018-10-21T02:41:42.789Z,80.70
2018-10-21T02:44:20.591Z,80.00
2018-10-21T02:46:53.663Z,80.00
2018-10-21T02:49:25.292Z,79.60
2018-10-21T02:52:01.749Z,79.60
2018-10-21T02:54:33.598Z,79.90
2018-10-21T02:57:06.909Z,79.60
2018-10-21T02:59:38.923Z,79.30
2018-10-21T03:02:10.709Z,79.40
2018-10-21T03:04:42.452Z,78.90
2018-10-21T03:07:14.226Z,79.00
2018-10-21T03:09:46.065Z,79.20
2018-10-21T03:12:17.857Z,79.60
2018-10-21T03:14:49.502Z,80.10
2018-10-21T03:17:21.258Z,80.50
2018-10-21T03:19:52.910Z,80.90
2018-10-21T03:22:24.478Z,81.00
2018-10-21T03:24:56.240Z,81.20
2018-10-21T03:27:27.882Z,82.00
2018-10-21T03:29:59.655Z,82.70
2018-10-21T03:32:31.279Z,82.00
2018-10-21T03:35:03.035Z,82.00
2018-10-21T03:37:34.702Z,82.20
2018-10-21T03:40:06.758Z,81.70
2018-10-21T03:42:38.422Z,81.70
2018-10-21T03:45:10.368Z,81.00
2018-10-21T03:47:42.150Z,79.10
2018-10-21T03:50:14.009Z,79.00
2018-10-21T03:52:45.658Z,79.00
2018-10-21T03:55:17.533Z,78.40
2018-10-21T03:57:49.273Z,77.80
2018-10-21T04:00:21.201Z,77.50
2018-10-21T04:02:52.929Z,77.50
2018-10-21T04:05:24.549Z,77.50
2018-10-21T04:07:56.531Z,77.60
2018-10-21T04:10:28.191Z,78.30
2018-10-21T04:13:00.168Z,79.20
2018-10-21T04:15:32.141Z,79.90
2018-10-21T04:18:04.075Z,80.30
2018-10-21T04:20:35.712Z,80.40
2018-10-21T04:23:07.493Z,79.60
2018-10-21T04:25:40.193Z,79.10
2018-10-21T04:28:12.235Z,78.80
2018-10-21T04:30:44.482Z,78.30
2018-10-21T04:33:20.282Z,77.10
2018-10-21T04:35:51.940Z,77.20
2018-10-21T04:38:39.879Z,76.80
2018-10-21T04:41:11.517Z,77.00
2018-10-21T04:43:43.396Z,77.80
2018-10-21T04:46:15.085Z,78.00
2018-10-21T04:48:46.908Z,78.40
2018-10-21T04:51:18.635Z,78.40
2018-10-21T04:53:50.306Z,78.30
2018-10-21T04:56:22.053Z,79.10
2018-10-21T04:58:53.948Z,79.40
2018-10-21T05:01:25.378Z,79.60
2018-10-21T05:03:57.120Z,80.10
2018-10-21T05:06:28.919Z,80.20
2018-10-21T05:09:00.637Z,80.00
2018-10-21T05:11:32.318Z,80.40
2018-10-21T05:14:04.093Z,80.60
2018-10-21T05:16:35.742Z,80.80
2018-10-21T05:19:07.699Z,80.80
2018-10-21T05:21:39.438Z,81.30
2018-10-21T05:24:11.103Z,81.50
2018-10-21T05:26:42.986Z,81.40
2018-10-21T05:29:14.705Z,81.10
2018-10-21T05:31:46.376Z,80.20
2018-10-21T05:34:18.145Z,78.80
2018-10-21T05:36:49.984Z,78.40
2018-10-21T05:39:21.550Z,77.90
2018-10-21T05:41:53.509Z,78.60
2018-10-21T05:44:25.197Z,79.00
2018-10-21T05:46:57.062Z,78.40
2018-10-21T05:49:28.784Z,78.00
2018-10-21T05:52:00.720Z,77.40
2018-10-21T05:54:32.520Z,77.40
2018-10-21T05:57:04.194Z,78.00
2018-10-21T05:59:35.918Z,77.20
2018-10-21T06:02:07.834Z,77.00
2018-10-21T06:04:39.570Z,77.70
2018-10-21T06:07:11.338Z,78.50
2018-10-21T06:09:43.098Z,78.90
2018-10-21T06:12:14.750Z,78.70
2018-10-21T06:14:46.890Z,79.00
2018-10-21T06:17:26.976Z,81.10
2018-10-21T06:20:11.739Z,82.10
2018-10-21T06:22:44.916Z,82.20
2018-10-21T06:25:16.764Z,81.40
2018-10-21T06:27:48.473Z,81.10
2018-10-21T06:30:20.092Z,81.40
2018-10-21T06:32:51.925Z,81.70
2018-10-21T06:35:23.603Z,82.00
2018-10-21T06:37:55.384Z,82.10
2018-10-21T06:40:26.802Z,82.50
2018-10-21T06:42:58.699Z,83.50
2018-10-21T06:45:30.476Z,83.10
2018-10-21T06:48:02.277Z,82.70
2018-10-21T06:50:33.967Z,81.60
2018-10-21T06:53:05.757Z,80.40
2018-10-21T06:55:37.573Z,79.10
2018-10-21T06:58:09.442Z,77.90
2018-10-21T07:00:41.299Z,77.60
2018-10-21T07:03:13.147Z,77.70
2018-10-21T07:06:18.195Z,77.50
2018-10-21T07:08:50.991Z,77.90
2018-10-21T07:11:22.741Z,78.10
2018-10-21T07:13:54.518Z,77.70
2018-10-21T07:16:26.044Z,77.10
2018-10-21T07:18:57.906Z,76.40
2018-10-21T07:21:29.757Z,75.90
2018-10-21T07:24:01.450Z,75.10
2018-10-21T07:26:33.169Z,74.80
2018-10-21T07:29:05.049Z,74.40
2018-10-21T07:31:36.808Z,74.20
2018-10-21T07:34:08.636Z,73.90
2018-10-21T07:36:40.471Z,73.50
2018-10-21T07:39:12.721Z,72.80
2018-10-21T07:41:44.491Z,72.40
2018-10-21T07:44:16.227Z,72.00
2018-10-21T07:46:48.100Z,72.00
2018-10-21T07:49:19.763Z,72.20
2018-10-21T07:51:51.332Z,71.90
2018-10-21T07:54:23.129Z,72.20
2018-10-21T07:56:54.805Z,70.80
2018-10-21T07:59:26.554Z,70.30
2018-10-21T08:01:58.348Z,69.80
2018-10-21T08:04:30.086Z,69.00
2018-10-21T08:07:17.896Z,68.50
2018-10-21T08:09:49.474Z,68.00
2018-10-21T08:12:21.429Z,67.40
2018-10-21T08:14:53.225Z,66.80
2018-10-21T08:17:25.045Z,66.70
2018-10-21T08:19:56.738Z,66.10
2018-10-21T08:22:28.454Z,65.40
2018-10-21T08:25:00.042Z,64.80
2018-10-21T08:27:31.977Z,64.40
2018-10-21T08:30:03.978Z,63.50
2018-10-21T08:32:35.608Z,63.40
2018-10-21T08:35:07.782Z,63.20
2018-10-21T08:37:39.526Z,62.60
2018-10-21T08:40:11.223Z,61.50
2018-10-21T08:42:42.978Z,60.90
2018-10-21T08:45:15.214Z,60.20
2018-10-21T08:47:54.119Z,60.40
2018-10-21T08:50:26.522Z,59.20
2018-10-21T08:52:58.477Z,58.60
2018-10-21T08:55:30.242Z,57.90
2018-10-21T08:58:01.855Z,57.20
2018-10-21T09:00:33.679Z,56.30
2018-10-21T09:03:05.521Z,55.70
2018-10-21T09:05:37.530Z,55.50
2018-10-21T09:08:09.452Z,54.90
2018-10-21T09:10:41.430Z,54.50
2018-10-21T09:13:27.840Z,54.50
2018-10-21T09:16:14.553Z,54.20
2018-10-21T09:19:05.517Z,53.50
2018-10-21T09:21:39.673Z,53.20
2018-10-21T09:24:11.433Z,52.50
2018-10-21T09:26:43.171Z,52.80
2018-10-21T09:29:14.989Z,51.60
2018-10-21T09:31:46.910Z,48.40
2018-10-21T09:34:18.469Z,46.10
2018-10-21T09:36:50.015Z,44.50
2018-10-21T09:39:21.544Z,43.80
2018-10-21T09:41:53.210Z,44.40
2018-10-21T09:44:24.909Z,45.50
2018-10-21T09:46:56.757Z,46.10
2018-10-21T09:49:28.397Z,45.10
2018-10-21T09:52:00.349Z,45.30
2018-10-21T09:54:32.022Z,45.50
2018-10-21T09:57:03.951Z,46.00
2018-10-21T09:59:35.836Z,44.80
2018-10-21T10:02:12.446Z,45.20
2018-10-21T10:04:44.197Z,45.60
2018-10-21T10:07:16.195Z,45.30
2018-10-21T10:09:48.143Z,45.90
2018-10-21T10:12:19.660Z,46.70
2018-10-21T10:14:51.592Z,47.40
2018-10-21T10:17:23.453Z,47.90
2018-10-21T10:19:55.113Z,47.60
2018-10-21T10:22:26.972Z,47.60
2018-10-21T10:24:58.796Z,48.70
2018-10-21T10:27:30.625Z,48.80
2018-10-21T10:30:02.389Z,47.90
2018-10-21T10:32:34.140Z,48.60
2018-10-21T10:35:06.321Z,48.20
2018-10-21T10:37:37.960Z,48.50
2018-10-21T10:40:11.375Z,48.90
2018-10-21T10:42:43.482Z,49.40
2018-10-21T10:45:15.180Z,49.30
2018-10-21T10:47:46.850Z,49.90
2018-10-21T10:50:18.602Z,50.10
2018-10-21T10:52:50.296Z,50.90
2018-10-21T10:55:22.205Z,50.00
2018-10-21T10:57:53.882Z,49.50
2018-10-21T11:00:25.528Z,46.90
2018-10-21T11:02:57.404Z,46.90
2018-10-21T11:05:29.040Z,47.10
2018-10-21T11:08:00.712Z,46.30
2018-10-21T11:10:32.658Z,46.70
2018-10-21T11:13:04.469Z,47.80
2018-10-21T11:15:36.407Z,47.20
2018-10-21T11:18:08.362Z,45.70
2018-10-21T11:20:40.099Z,44.00
2018-10-21T11:23:11.864Z,42.40
2018-10-21T11:25:43.622Z,39.90
2018-10-21T11:28:15.243Z,37.50
2018-10-21T11:30:47.038Z,37.70
2018-10-21T11:33:18.921Z,35.90
2018-10-21T11:35:50.797Z,35.10
2018-10-21T11:38:22.617Z,33.10
2018-10-21T11:40:54.349Z,31.70
2018-10-21T11:43:25.966Z,29.90
2018-10-21T11:45:57.740Z,30.40
2018-10-21T11:48:29.382Z,30.10
2018-10-21T11:51:01.302Z,29.50
2018-10-21T11:53:33.098Z,29.30
2018-10-21T11:56:04.911Z,31.50
2018-10-21T11:58:36.573Z,34.30
2018-10-21T12:01:08.527Z,36.40
2018-10-21T12:03:40.318Z,38.40
2018-10-21T12:06:11.986Z,39.90
2018-10-21T12:08:43.740Z,39.50
2018-10-21T12:11:15.493Z,38.60
2018-10-21T12:13:47.266Z,37.30
2018-10-21T12:16:19.121Z,36.40
2018-10-21T12:18:50.779Z,36.10
2018-10-21T12:21:22.542Z,36.40
2018-10-21T12:23:54.265Z,36.10
2018-10-21T12:26:25.954Z,34.70
2018-10-21T12:28:57.647Z,32.70
2018-10-21T12:31:29.424Z,32.60
2018-10-21T12:34:01.159Z,32.50
2018-10-21T12:36:33.065Z,32.00
2018-10-21T12:39:05.955Z,30.90
2018-10-21T12:41:37.713Z,30.00
2018-10-21T12:44:09.473Z,29.60
2018-10-21T12:46:41.427Z,28.70
2018-10-21T12:49:13.229Z,27.70
2018-10-21T12:51:44.858Z,26.70
2018-10-21T12:54:16.727Z,26.70
2018-10-21T12:56:48.501Z,27.20
2018-10-21T12:59:20.215Z,27.10
2018-10-21T13:01:52.008Z,26.40
2018-10-21T13:04:24.082Z,25.50
2018-10-21T13:06:55.731Z,24.70
2018-10-21T13:09:27.389Z,24.00
2018-10-21T13:11:59.221Z,24.10
2018-10-21T13:14:30.903Z,24.00
2018-10-21T13:17:02.582Z,23.80
2018-10-21T13:19:34.436Z,23.20
2018-10-21T13:22:06.136Z,23.20
2018-10-21T13:24:37.945Z,23.40
2018-10-21T13:27:09.605Z,23.50
2018-10-21T13:29:41.254Z,23.30
2018-10-21T13:32:13.228Z,23.30
2018-10-21T13:34:45.046Z,22.40
2018-10-21T13:37:16.798Z,22.10
2018-10-21T13:39:48.574Z,21.80
2018-10-21T13:42:20.369Z,21.70
2018-10-21T13:44:52.103Z,21.40
2018-10-21T13:47:23.854Z,21.90
2018-10-21T13:49:55.644Z,22.00
2018-10-21T13:52:27.318Z,22.00
2018-10-21T13:54:59.380Z,22.20
2018-10-21T13:57:31.188Z,23.30
2018-10-21T14:00:02.903Z,24.20
2018-10-21T14:02:34.666Z,25.20
2018-10-21T14:05:07.120Z,25.80
2018-10-21T14:07:39.055Z,26.80
2018-10-21T14:10:10.811Z,27.30
2018-10-21T14:12:42.595Z,28.30
2018-10-21T14:15:14.547Z,29.40
2018-10-21T14:17:46.500Z,30.50
2018-10-21T14:20:18.285Z,30.60
2018-10-21T14:22:50.034Z,30.50
2018-10-21T14:25:21.906Z,30.70
2018-10-21T14:27:53.635Z,30.90
2018-10-21T14:30:25.476Z,31.80
2018-10-21T14:32:57.310Z,32.30
2018-10-21T14:35:29.254Z,33.10
2018-10-21T14:38:01.019Z,34.00
2018-10-21T14:40:32.943Z,34.80
2018-10-21T14:43:04.733Z,35.00
2018-10-21T14:45:36.547Z,35.50
2018-10-21T14:48:08.357Z,35.90
2018-10-21T14:50:40.081Z,36.00
2018-10-21T14:53:11.753Z,36.50
2018-10-21T14:55:44.261Z,37.10
2018-10-21T14:58:16.106Z,37.50
2018-10-21T15:00:47.844Z,37.80
2018-10-21T15:03:19.488Z,38.40
2018-10-21T15:05:51.241Z,39.00
2018-10-21T15:08:23.141Z,39.30
2018-10-21T15:10:54.886Z,39.80
2018-10-21T15:13:26.733Z,39.90
2018-10-21T15:15:58.555Z,40.10
2018-10-21T15:18:31.403Z,40.50
2018-10-21T15:21:03.369Z,40.60
2018-10-21T15:23:34.998Z,40.90
2018-10-21T15:26:06.760Z,41.20
2018-10-21T15:28:38.507Z,41.60
2018-10-21T15:31:10.164Z,42.10
2018-10-21T15:33:41.836Z,42.50
2018-10-21T15:36:13.600Z,42.90
2018-10-21T15:38:45.242Z,43.70
2018-10-21T15:41:17.210Z,43.90
2018-10-21T15:43:49.065Z,44.30
2018-10-21T15:46:20.667Z,43.90
2018-10-21T15:48:52.356Z,44.20
2018-10-21T15:51:24.270Z,44.40
2018-10-21T15:53:56.013Z,44.70
2018-10-21T15:56:27.769Z,44.90
2018-10-21T15:58:59.516Z,45.20
2018-10-21T16:01:31.408Z,46.10
2018-10-21T16:04:03.186Z,45.90
2018-10-21T16:06:37.180Z,46.20
2018-10-21T16:09:14.006Z,46.40
2018-10-21T16:11:45.701Z,46.60
2018-10-21T16:14:17.347Z,46.70
2018-10-21T16:16:49.030Z,46.80
2018-10-21T16:19:20.957Z,47.00
2018-10-21T16:21:52.886Z,47.10
2018-10-21T16:24:24.587Z,47.30
2018-10-21T16:26:56.339Z,47.60
2018-10-21T16:29:28.207Z,48.20
2018-10-21T16:31:59.877Z,48.20
2018-10-21T16:34:31.608Z,48.20
2018-10-21T16:37:03.272Z,48.50
2018-10-21T16:39:35.045Z,48.70
2018-10-21T16:42:06.815Z,48.80
2018-10-21T16:44:38.582Z,48.40
2018-10-21T16:47:10.224Z,48.60
2018-10-21T16:49:41.997Z,49.20
2018-10-21T16:52:13.756Z,50.40
2018-10-21T16:54:45.633Z,51.20
2018-10-21T16:57:17.373Z,51.40
2018-10-21T16:59:49.207Z,53.50
2018-10-21T17:02:20.778Z,51.30
2018-10-21T17:04:52.629Z,51.40
2018-10-21T17:07:24.425Z,52.00
2018-10-21T17:09:56.449Z,52.10
2018-10-21T17:12:28.027Z,53.10
2018-10-21T17:14:59.759Z,52.60
2018-10-21T17:17:31.419Z,52.90
2018-10-21T17:20:03.182Z,53.80
2018-10-21T17:22:34.851Z,54.10
2018-10-21T17:25:06.953Z,54.20
2018-10-21T17:27:38.667Z,54.50
2018-10-21T17:30:15.936Z,55.60
2018-10-21T17:32:47.956Z,54.40
2018-10-21T17:35:19.712Z,54.30
2018-10-21T17:37:51.436Z,54.60
2018-10-21T17:40:23.196Z,56.20
2018-10-21T17:42:55.079Z,56.20
2018-10-21T17:45:26.606Z,56.10
2018-10-21T17:47:58.361Z,57.10
2018-10-21T17:50:30.038Z,57.20
2018-10-21T17:53:01.790Z,57.40
2018-10-21T17:55:33.642Z,57.90
2018-10-21T17:58:05.653Z,58.10
2018-10-21T18:00:37.381Z,58.30
2018-10-21T18:03:09.125Z,58.10
2018-10-21T18:05:40.905Z,58.50
2018-10-21T18:08:12.552Z,58.50
2018-10-21T18:10:44.322Z,57.70
2018-10-21T18:13:16.089Z,57.80
2018-10-21T18:15:48.015Z,58.00
2018-10-21T18:18:19.773Z,58.00
2018-10-21T18:20:51.528Z,58.30
2018-10-21T18:23:23.403Z,58.20
2018-10-21T18:25:55.284Z,58.40
2018-10-21T18:28:27.014Z,58.50
2018-10-21T18:30:59.354Z,59.00
2018-10-21T18:33:31.056Z,59.30
2018-10-21T18:36:03.005Z,59.70
2018-10-21T18:38:34.661Z,59.80
2018-10-21T18:41:06.708Z,59.70
2018-10-21T18:43:38.286Z,59.70
2018-10-21T18:46:10.371Z,60.90
2018-10-21T18:48:42.006Z,60.80
2018-10-21T18:51:13.885Z,62.00
2018-10-21T18:53:45.619Z,62.10
2018-10-21T18:56:17.405Z,62.10
2018-10-21T18:58:49.364Z,62.20
2018-10-21T19:01:21.077Z,61.60
2018-10-21T19:03:53.002Z,61.20
2018-10-21T19:06:24.624Z,61.10
2018-10-21T19:08:56.287Z,61.30
2018-10-21T19:11:27.857Z,61.40
2018-10-21T19:13:59.513Z,61.90
2018-10-21T19:16:31.262Z,62.50
2018-10-21T19:19:02.942Z,63.60
2018-10-21T19:21:34.684Z,63.60
2018-10-21T19:24:06.554Z,64.20
2018-10-21T19:26:39.241Z,64.20
2018-10-21T19:29:10.969Z,63.90
2018-10-21T19:31:42.636Z,62.80
2018-10-21T19:34:14.300Z,62.60
2018-10-21T19:36:46.152Z,62.90
2018-10-21T19:39:17.938Z,62.90
2018-10-21T19:41:49.757Z,64.40
2018-10-21T19:44:21.518Z,64.60
2018-10-21T19:46:53.198Z,65.40
2018-10-21T19:49:25.042Z,67.10
2018-10-21T19:51:56.877Z,67.20
2018-10-21T19:54:28.460Z,68.60
2018-10-21T19:57:00.326Z,68.50
2018-10-21T19:59:31.985Z,67.60
2018-10-21T20:02:03.862Z,67.40
2018-10-21T20:04:35.830Z,68.10
2018-10-21T20:07:07.589Z,68.00
2018-10-21T20:09:39.235Z,68.90
2018-10-21T20:12:10.995Z,68.20
2018-10-21T20:14:42.762Z,69.20
2018-10-21T20:17:14.505Z,68.60
2018-10-21T20:19:46.280Z,68.40
2018-10-21T20:22:18.005Z,68.50
2018-10-21T20:24:49.768Z,68.40
2018-10-21T20:27:21.561Z,67.20
2018-10-21T20:29:53.213Z,67.80
2018-10-21T20:32:24.964Z,69.00
2018-10-21T20:34:56.697Z,68.10
2018-10-21T20:37:28.482Z,66.50
2018-10-21T20:40:00.287Z,65.90
2018-10-21T20:42:32.216Z,66.90
2018-10-21T20:45:03.977Z,69.00
2018-10-21T20:47:35.699Z,69.80
2018-10-21T20:50:07.965Z,69.60
2018-10-21T20:52:39.788Z,68.70
2018-10-21T20:55:11.715Z,68.40
2018-10-21T20:57:43.522Z,68.70
2018-10-21T21:00:15.345Z,68.70
2018-10-21T21:02:47.124Z,69.50
2018-10-21T21:05:19.804Z,70.50
2018-10-21T21:07:51.621Z,71.50
2018-10-21T21:10:23.377Z,71.50
2018-10-21T21:13:02.118Z,71.80
2018-10-21T21:15:33.967Z,71.90
2018-10-21T21:18:05.831Z,72.60
2018-10-21T21:20:37.542Z,72.70
2018-10-21T21:23:09.159Z,72.40
2018-10-21T21:25:40.916Z,73.20
2018-10-21T21:28:12.565Z,72.70
2018-10-21T21:30:44.430Z,73.40
2018-10-21T21:33:16.075Z,72.40
2018-10-21T21:35:47.822Z,72.10
2018-10-21T21:38:19.583Z,72.20
2018-10-21T21:40:51.245Z,72.40
2018-10-21T21:43:23.111Z,72.20
2018-10-21T21:45:54.961Z,72.10
2018-10-21T21:48:26.809Z,72.20
2018-10-21T21:50:58.611Z,72.30
2018-10-21T21:53:30.348Z,71.90
2018-10-21T21:56:02.121Z,72.50
2018-10-21T21:58:33.860Z,72.10
2018-10-21T22:01:05.652Z,72.30
2018-10-21T22:03:37.500Z,72.20
2018-10-21T22:06:09.318Z,72.90
2018-10-21T22:08:40.994Z,72.20
2018-10-21T22:11:12.956Z,72.00
2018-10-21T22:13:44.616Z,72.10
2018-10-21T22:16:16.622Z,72.20
2018-10-21T22:18:48.447Z,72.50
2018-10-21T22:21:20.301Z,72.00
2018-10-21T22:23:51.991Z,71.70
2018-10-21T22:26:23.749Z,71.40
2018-10-21T22:28:55.390Z,71.50
2018-10-21T22:31:27.128Z,71.90
2018-10-21T22:33:58.981Z,72.30
2018-10-21T22:36:30.762Z,72.70
2018-10-21T22:39:02.537Z,73.20
2018-10-21T22:41:34.392Z,73.40
2018-10-21T22:44:06.357Z,73.40
2018-10-21T22:46:38.310Z,72.90
2018-10-21T22:49:09.978Z,73.20
2018-10-21T22:51:41.756Z,73.60
2018-10-21T22:54:13.585Z,74.50
2018-10-21T22:56:45.262Z,74.60
2018-10-21T22:59:16.923Z,72.90
2018-10-21T23:01:48.868Z,72.50
2018-10-21T23:04:20.835Z,72.90
2018-10-21T23:06:52.491Z,73.50
2018-10-21T23:09:24.153Z,73.30
2018-10-21T23:11:55.901Z,74.60
2018-10-21T23:14:27.849Z,75.00
2018-10-21T23:16:59.753Z,74.20
2018-10-21T23:19:44.462Z,73.00
2018-10-21T23:22:16.310Z,72.20
2018-10-21T23:24:48.003Z,70.60
2018-10-21T23:27:19.758Z,71.10
2018-10-21T23:29:51.512Z,71.90
2018-10-21T23:32:23.270Z,72.50
2018-10-21T23:34:55.033Z,72.90
2018-10-21T23:37:26.692Z,72.60
2018-10-21T23:39:58.555Z,72.80
2018-10-21T23:42:30.311Z,72.00
2018-10-21T23:45:01.965Z,72.20
2018-10-21T23:47:33.841Z,74.00
2018-10-21T23:50:05.910Z,75.90
2018-10-21T23:52:37.689Z,73.90
2018-10-21T23:55:09.434Z,71.70
2018-10-21T23:57:41.209Z,71.00
